createdAt,value
2018-01-24T00:03:58.261Z,99.90
2018-01-24T00:06:26.257Z,99.90
2018-01-24T00:08:59.838Z,99.90
2018-01-24T00:11:29.435Z,99.90
2018-01-24T00:13:57.056Z,99.90
2018-01-24T00:16:25.620Z,99.90
2018-01-24T00:18:54.264Z,99.90
2018-01-24T00:21:22.768Z,99.90
2018-01-24T00:23:50.633Z,99.90
2018-01-24T00:26:18.324Z,99.90
2018-01-24T00:28:46.608Z,99.90
2018-01-24T00:31:14.152Z,99.90
2018-01-24T00:33:41.844Z,99.90
2018-01-24T00:36:10.768Z,99.90
2018-01-24T00:38:37.829Z,99.90
2018-01-24T00:41:05.524Z,99.90
2018-01-24T00:43:33.143Z,99.90
2018-01-24T00:48:40.046Z,99.90
2018-01-24T00:51:07.710Z,99.90
2018-01-24T00:53:35.343Z,99.90
2018-01-24T00:56:03.031Z,99.90
2018-01-24T00:58:31.467Z,99.90
2018-01-24T01:00:59.104Z,99.90
2018-01-24T01:08:30.321Z,99.90
2018-01-24T01:10:57.956Z,99.90
2018-01-24T01:13:25.592Z,99.90
2018-01-24T01:15:54.332Z,99.90
2018-01-24T01:18:23.104Z,99.90
2018-01-24T01:20:50.717Z,99.90
2018-01-24T01:23:18.811Z,99.90
2018-01-24T01:25:46.450Z,99.90
2018-01-24T01:28:14.330Z,99.90
2018-01-24T01:30:42.031Z,99.90
2018-01-24T01:33:09.658Z,99.90
2018-01-24T01:35:37.310Z,99.90
2018-01-24T01:38:04.992Z,99.90
2018-01-24T01:40:32.619Z,99.90
2018-01-24T01:45:27.955Z,99.90
2018-01-24T01:47:55.590Z,99.90
2018-01-24T01:50:23.223Z,99.90
2018-01-24T01:52:51.731Z,99.90
2018-01-24T01:55:19.361Z,99.90
2018-01-24T01:57:46.999Z,99.90
2018-01-24T02:02:53.766Z,99.90
2018-01-24T02:05:22.334Z,99.90
2018-01-24T02:07:49.950Z,99.90
2018-01-24T02:10:17.579Z,99.90
2018-01-24T02:12:45.271Z,99.90
2018-01-24T02:15:13.703Z,99.90
2018-01-24T02:17:41.328Z,99.90
2018-01-24T02:20:09.036Z,99.90
2018-01-24T02:22:36.651Z,99.90
2018-01-24T02:25:04.284Z,99.90
2018-01-24T02:27:31.974Z,99.90
2018-01-24T02:29:59.604Z,99.90
2018-01-24T02:32:27.237Z,99.90
2018-01-24T02:34:54.949Z,99.90
2018-01-24T02:37:22.570Z,99.90
2018-01-24T02:39:50.206Z,99.90
2018-01-24T02:42:18.718Z,99.90
2018-01-24T02:44:46.355Z,99.90
2018-01-24T02:47:13.982Z,99.90
2018-01-24T02:49:41.660Z,99.90
2018-01-24T02:52:11.029Z,99.90
2018-01-24T02:54:38.651Z,99.90
2018-01-24T02:57:06.345Z,99.90
2018-01-24T02:59:33.968Z,99.90
2018-01-24T03:02:01.582Z,99.90
2018-01-24T03:04:30.213Z,99.90
2018-01-24T03:06:58.368Z,99.90
2018-01-24T03:09:26.941Z,99.90
2018-01-24T03:11:54.647Z,99.90
2018-01-24T03:14:23.198Z,99.90
2018-01-24T03:16:51.796Z,99.90
2018-01-24T03:19:20.334Z,99.90
2018-01-24T03:24:29.379Z,99.90
2018-01-24T03:26:57.000Z,99.90
2018-01-24T03:29:25.482Z,99.90
2018-01-24T03:31:53.171Z,99.90
2018-01-24T03:34:20.792Z,99.90
2018-01-24T03:36:48.451Z,99.90
2018-01-24T03:41:54.861Z,99.90
2018-01-24T03:44:22.545Z,99.90
2018-01-24T03:46:50.984Z,99.90
2018-01-24T03:49:18.597Z,99.90
2018-01-24T03:51:46.269Z,99.90
2018-01-24T03:54:14.690Z,99.90
2018-01-24T03:56:43.261Z,99.90
2018-01-24T03:59:10.947Z,99.90
2018-01-24T04:01:39.503Z,99.90
2018-01-24T04:04:07.132Z,99.90
2018-01-24T04:06:34.815Z,99.90
2018-01-24T04:09:02.444Z,99.90
2018-01-24T04:11:30.064Z,99.90
2018-01-24T04:13:57.744Z,99.90
2018-01-24T04:16:25.759Z,99.90
2018-01-24T04:18:53.348Z,99.90
2018-01-24T04:21:21.033Z,99.90
2018-01-24T04:23:48.667Z,99.90
2018-01-24T04:26:16.289Z,99.90
2018-01-24T04:28:44.910Z,99.90
2018-01-24T04:31:12.526Z,99.90
2018-01-24T04:36:19.835Z,99.90
2018-01-24T04:38:47.990Z,99.90
2018-01-24T04:41:15.607Z,99.90
2018-01-24T04:43:44.228Z,99.90
2018-01-24T04:48:41.234Z,99.90
2018-01-24T04:51:08.921Z,99.90
2018-01-24T04:53:36.546Z,99.90
2018-01-24T04:56:04.168Z,99.90
2018-01-24T04:58:32.670Z,99.90
2018-01-24T05:01:00.287Z,99.90
2018-01-24T05:03:27.905Z,99.90
2018-01-24T05:05:56.437Z,99.90
2018-01-24T05:08:24.063Z,99.90
2018-01-24T05:10:51.683Z,99.90
2018-01-24T05:13:19.357Z,99.90
2018-01-24T05:15:46.976Z,99.90
2018-01-24T05:18:14.601Z,99.90
2018-01-24T05:20:47.249Z,99.90
2018-01-24T05:23:14.871Z,99.90
2018-01-24T05:28:10.391Z,99.90
2018-01-24T05:30:38.025Z,99.90
2018-01-24T05:33:05.675Z,99.90
2018-01-24T05:35:33.362Z,99.90
2018-01-24T05:38:00.987Z,99.90
2018-01-24T05:40:28.624Z,99.90
2018-01-24T05:42:57.234Z,99.90
2018-01-24T05:45:24.860Z,99.90
2018-01-24T05:47:52.505Z,99.90
2018-01-24T05:52:47.817Z,99.90
2018-01-24T05:55:15.450Z,99.90
2018-01-24T06:00:23.167Z,99.90
2018-01-24T06:02:50.847Z,99.90
2018-01-24T06:05:18.469Z,99.90
2018-01-24T06:07:46.091Z,99.90
2018-01-24T06:10:13.788Z,99.90
2018-01-24T06:12:41.414Z,99.90
2018-01-24T06:15:09.037Z,99.90
2018-01-24T06:17:37.619Z,99.90
2018-01-24T06:20:05.282Z,99.90
2018-01-24T06:22:32.913Z,99.90
2018-01-24T06:25:00.589Z,99.90
2018-01-24T06:27:29.038Z,99.90
2018-01-24T06:29:56.669Z,99.90
2018-01-24T06:32:24.401Z,99.90
2018-01-24T06:34:52.027Z,99.90
2018-01-24T06:37:20.586Z,99.90
2018-01-24T06:39:48.277Z,99.90
2018-01-24T06:42:15.895Z,99.90
2018-01-24T06:47:11.216Z,99.90
2018-01-24T06:49:38.897Z,99.90
2018-01-24T06:52:06.524Z,99.90
2018-01-24T06:54:34.210Z,99.90
2018-01-24T06:57:01.842Z,99.90
2018-01-24T07:02:02.311Z,99.90
2018-01-24T07:04:30.786Z,99.90
2018-01-24T07:06:58.448Z,99.90
2018-01-24T07:09:26.898Z,99.90
2018-01-24T07:12:06.106Z,99.90
2018-01-24T07:17:21.065Z,99.90
2018-01-24T07:19:48.742Z,99.90
2018-01-24T07:22:16.386Z,99.90
2018-01-24T07:24:44.008Z,99.90
2018-01-24T07:27:11.698Z,99.90
2018-01-24T07:29:40.135Z,99.90
2018-01-24T07:32:07.770Z,99.90
2018-01-24T07:34:35.455Z,99.90
2018-01-24T07:37:03.087Z,99.90
2018-01-24T07:39:31.529Z,99.90
2018-01-24T07:41:59.210Z,99.90
2018-01-24T07:44:27.811Z,99.90
2018-01-24T07:46:56.384Z,99.90
2018-01-24T07:49:24.069Z,99.90
2018-01-24T07:51:52.412Z,99.90
2018-01-24T07:54:20.983Z,99.90
2018-01-24T07:56:49.617Z,99.90
2018-01-24T07:59:18.670Z,99.90
2018-01-24T08:01:47.231Z,99.90
2018-01-24T08:04:15.759Z,99.90
2018-01-24T08:06:43.379Z,99.90
2018-01-24T08:09:11.006Z,99.90
2018-01-24T08:11:38.758Z,99.90
2018-01-24T08:14:06.307Z,99.90
2018-01-24T08:16:33.935Z,99.90
2018-01-24T08:19:02.430Z,99.90
2018-01-24T08:21:30.053Z,99.90
2018-01-24T08:23:57.677Z,99.90
2018-01-24T08:26:25.386Z,99.90
2018-01-24T08:28:53.749Z,99.90
2018-01-24T08:31:22.231Z,99.90
2018-01-24T08:33:50.859Z,99.90
2018-01-24T08:36:19.372Z,99.90
2018-01-24T08:43:56.713Z,99.90
2018-01-24T08:46:24.388Z,96.20
2018-01-24T08:48:52.006Z,97.30
2018-01-24T08:53:48.280Z,98.90
2018-01-24T08:56:15.922Z,99.90
2018-01-24T09:01:11.220Z,96.30
2018-01-24T09:03:38.844Z,96.20
2018-01-24T09:06:06.469Z,90.90
2018-01-24T09:08:34.149Z,95.30
2018-01-24T09:11:01.776Z,89.30
2018-01-24T09:13:30.354Z,90.40
2018-01-24T09:15:58.037Z,93.00
2018-01-24T09:18:25.679Z,89.40
2018-01-24T09:20:53.308Z,92.00
2018-01-24T09:23:21.838Z,90.40
2018-01-24T09:25:49.459Z,91.70
2018-01-24T09:28:17.085Z,91.80
2018-01-24T09:30:44.766Z,93.00
2018-01-24T09:33:12.393Z,94.20
2018-01-24T09:35:40.956Z,91.50
2018-01-24T09:38:08.639Z,94.10
2018-01-24T09:40:37.074Z,82.30
2018-01-24T09:43:05.646Z,89.70
2018-01-24T09:45:33.326Z,81.30
2018-01-24T09:50:28.577Z,84.20
2018-01-24T09:52:57.073Z,85.80
2018-01-24T09:55:25.508Z,89.60
2018-01-24T09:57:53.129Z,83.40
2018-01-24T10:00:21.774Z,76.10
2018-01-24T10:02:49.396Z,78.10
2018-01-24T10:07:57.101Z,76.90
2018-01-24T10:10:24.715Z,76.50
2018-01-24T10:12:52.333Z,77.00
2018-01-24T10:15:20.015Z,73.00
2018-01-24T10:17:47.626Z,74.90
2018-01-24T10:20:15.237Z,74.40
2018-01-24T10:25:10.544Z,70.40
2018-01-24T10:27:38.507Z,75.80
2018-01-24T10:32:33.806Z,82.40
2018-01-24T10:35:01.427Z,78.00
2018-01-24T10:37:29.094Z,73.90
2018-01-24T10:39:56.719Z,69.90
2018-01-24T10:42:24.337Z,68.60
2018-01-24T10:44:52.018Z,68.00
2018-01-24T10:47:19.637Z,67.00
2018-01-24T10:49:47.254Z,63.40
2018-01-24T10:52:14.971Z,65.30
2018-01-24T10:54:42.535Z,63.50
2018-01-24T10:57:10.161Z,67.50
2018-01-24T10:59:37.826Z,70.00
2018-01-24T11:02:06.383Z,74.60
2018-01-24T11:04:34.004Z,72.50
2018-01-24T11:07:01.685Z,72.50
2018-01-24T11:09:29.306Z,72.20
2018-01-24T11:11:56.928Z,75.00
2018-01-24T11:14:24.609Z,67.90
2018-01-24T11:16:52.219Z,68.20
2018-01-24T11:21:47.527Z,60.30
2018-01-24T11:24:15.143Z,59.10
2018-01-24T11:26:43.583Z,64.50
2018-01-24T11:31:39.730Z,61.30
2018-01-24T11:36:46.499Z,60.40
2018-01-24T11:39:14.112Z,58.60
2018-01-24T11:41:41.731Z,60.80
2018-01-24T11:44:09.398Z,57.40
2018-01-24T11:46:37.017Z,59.50
2018-01-24T11:49:04.674Z,62.00
2018-01-24T11:51:32.343Z,59.60
2018-01-24T11:54:00.806Z,57.00
2018-01-24T11:56:28.420Z,56.30
2018-01-24T11:58:56.098Z,55.80
2018-01-24T12:01:24.559Z,57.90
2018-01-24T12:03:52.184Z,59.90
2018-01-24T12:06:20.811Z,56.90
2018-01-24T12:08:48.422Z,58.90
2018-01-24T12:11:16.975Z,59.00
2018-01-24T12:13:44.657Z,56.20
2018-01-24T12:16:12.288Z,57.50
2018-01-24T12:18:39.905Z,56.50
2018-01-24T12:21:07.583Z,54.50
2018-01-24T12:23:35.245Z,53.10
2018-01-24T12:26:02.835Z,52.20
2018-01-24T12:28:30.533Z,49.80
2018-01-24T12:30:58.843Z,52.20
2018-01-24T12:33:26.467Z,50.50
2018-01-24T12:35:54.163Z,52.80
2018-01-24T12:38:21.791Z,49.70
2018-01-24T12:40:49.419Z,47.20
2018-01-24T12:43:17.111Z,47.10
2018-01-24T12:45:45.650Z,48.00
2018-01-24T12:48:14.217Z,49.30
2018-01-24T12:50:41.897Z,51.80
2018-01-24T12:53:09.521Z,50.00
2018-01-24T12:55:38.308Z,48.60
2018-01-24T12:58:05.981Z,50.00
2018-01-24T13:03:13.712Z,49.20
2018-01-24T13:05:41.331Z,43.90
2018-01-24T13:08:08.950Z,48.50
2018-01-24T13:10:36.620Z,50.70
2018-01-24T13:13:04.237Z,50.50
2018-01-24T13:15:32.673Z,53.00
2018-01-24T13:18:00.634Z,51.00
2018-01-24T13:20:28.256Z,51.90
2018-01-24T13:22:56.815Z,48.00
2018-01-24T13:25:24.495Z,48.90
2018-01-24T13:27:52.127Z,48.90
2018-01-24T13:30:19.757Z,47.50
2018-01-24T13:32:47.439Z,46.10
2018-01-24T13:37:44.538Z,48.30
2018-01-24T13:40:12.220Z,49.50
2018-01-24T13:42:40.788Z,51.50
2018-01-24T13:45:08.413Z,51.30
2018-01-24T13:50:17.686Z,51.40
2018-01-24T13:52:45.390Z,51.90
2018-01-24T13:55:12.991Z,49.70
2018-01-24T13:57:40.612Z,50.70
2018-01-24T14:00:08.285Z,50.60
2018-01-24T14:02:36.950Z,50.60
2018-01-24T14:05:04.550Z,50.90
2018-01-24T14:07:33.096Z,49.90
2018-01-24T14:10:00.717Z,53.70
2018-01-24T14:12:28.345Z,54.30
2018-01-24T14:14:56.015Z,54.10
2018-01-24T14:17:24.604Z,56.30
2018-01-24T14:19:53.210Z,55.30
2018-01-24T14:22:21.611Z,53.30
2018-01-24T14:24:50.058Z,54.00
2018-01-24T14:27:17.679Z,54.20
2018-01-24T14:29:45.350Z,51.60
2018-01-24T14:32:13.001Z,51.80
2018-01-24T14:34:40.626Z,52.40
2018-01-24T14:37:08.299Z,50.60
2018-01-24T14:39:36.726Z,51.10
2018-01-24T14:42:04.352Z,52.30
2018-01-24T14:44:32.026Z,53.60
2018-01-24T14:46:59.656Z,53.60
2018-01-24T14:49:27.291Z,50.90
2018-01-24T14:51:55.803Z,52.00
2018-01-24T14:56:51.044Z,53.10
2018-01-24T14:59:18.727Z,52.50
2018-01-24T15:01:46.329Z,54.60
2018-01-24T15:04:13.955Z,57.20
2018-01-24T15:06:41.619Z,59.30
2018-01-24T15:09:09.252Z,57.20
2018-01-24T15:11:37.853Z,58.00
2018-01-24T15:14:06.373Z,58.10
2018-01-24T15:19:13.137Z,60.80
2018-01-24T15:21:40.765Z,62.20
2018-01-24T15:24:08.382Z,65.20
2018-01-24T15:26:36.056Z,65.90
2018-01-24T15:29:04.498Z,66.10
2018-01-24T15:31:32.113Z,65.80
2018-01-24T15:33:59.803Z,68.00
2018-01-24T15:36:28.758Z,69.70
2018-01-24T15:41:24.869Z,69.40
2018-01-24T15:43:52.494Z,69.60
2018-01-24T15:46:20.126Z,72.40
2018-01-24T15:51:15.410Z,72.30
2018-01-24T15:53:43.013Z,72.30
2018-01-24T15:56:10.690Z,72.60
2018-01-24T15:58:38.304Z,76.10
2018-01-24T16:03:34.551Z,77.80
2018-01-24T16:06:03.103Z,78.90
2018-01-24T16:08:31.685Z,80.40
2018-01-24T16:11:00.323Z,80.00
2018-01-24T16:13:27.927Z,79.50
2018-01-24T16:15:56.480Z,77.90
2018-01-24T16:18:25.078Z,76.40
2018-01-24T16:20:52.693Z,78.80
2018-01-24T16:23:20.315Z,77.40
2018-01-24T16:25:48.939Z,78.60
2018-01-24T16:28:17.471Z,79.30
2018-01-24T16:30:45.049Z,80.50
2018-01-24T16:33:12.733Z,80.70
2018-01-24T16:38:20.459Z,81.10
2018-01-24T16:40:48.059Z,85.50
2018-01-24T16:43:15.673Z,88.40
2018-01-24T16:45:43.357Z,88.20
2018-01-24T16:48:10.978Z,88.90
2018-01-24T16:50:38.596Z,88.30
2018-01-24T16:53:07.235Z,88.00
2018-01-24T16:55:34.848Z,87.30
2018-01-24T16:58:02.472Z,86.90
2018-01-24T17:00:31.137Z,89.60
2018-01-24T17:05:26.344Z,89.30
2018-01-24T17:10:21.629Z,88.90
2018-01-24T17:12:49.261Z,89.40
2018-01-24T17:15:16.953Z,90.20
2018-01-24T17:17:44.579Z,91.10
2018-01-24T17:20:12.196Z,92.60
2018-01-24T17:22:39.874Z,93.60
2018-01-24T17:25:07.478Z,93.10
2018-01-24T17:27:35.102Z,93.70
2018-01-24T17:30:02.776Z,94.80
2018-01-24T17:32:30.404Z,95.40
2018-01-24T17:34:58.032Z,94.30
2018-01-24T17:37:25.705Z,94.50
2018-01-24T17:39:54.281Z,94.10
2018-01-24T17:42:21.914Z,94.80
2018-01-24T17:44:49.588Z,93.20
2018-01-24T17:47:18.163Z,94.20
2018-01-24T17:49:45.787Z,94.70
2018-01-24T17:52:13.457Z,93.80
2018-01-24T17:54:42.014Z,92.90
2018-01-24T17:57:09.747Z,93.80
2018-01-24T18:02:18.438Z,91.30
2018-01-24T18:04:46.105Z,92.20
2018-01-24T18:09:52.520Z,91.80
2018-01-24T18:12:20.969Z,91.60
2018-01-24T18:14:48.613Z,90.40
2018-01-24T18:17:16.276Z,90.40
2018-01-24T18:19:44.012Z,91.80
2018-01-24T18:22:11.543Z,94.30
2018-01-24T18:24:39.216Z,96.20
2018-01-24T18:27:06.830Z,96.80
2018-01-24T18:29:34.453Z,97.80
2018-01-24T18:32:02.141Z,99.90
2018-01-24T18:34:29.776Z,99.90
2018-01-24T18:36:57.443Z,99.00
2018-01-24T18:39:25.102Z,98.10
2018-01-24T18:41:52.739Z,97.30
2018-01-24T18:46:48.052Z,97.40
2018-01-24T18:49:15.678Z,95.70
2018-01-24T18:51:43.301Z,95.40
2018-01-24T18:54:10.975Z,95.20
2018-01-24T18:56:38.734Z,95.00
2018-01-24T18:59:06.311Z,93.40
2018-01-24T19:01:34.005Z,93.70
2018-01-24T19:04:01.750Z,94.40
2018-01-24T19:06:29.489Z,99.20
2018-01-24T19:11:29.082Z,99.90
2018-01-24T19:13:56.995Z,99.30
2018-01-24T19:16:25.127Z,97.10
2018-01-24T19:18:54.523Z,97.80
2018-01-24T19:21:22.681Z,99.90
2018-01-24T19:23:50.372Z,99.90
2018-01-24T19:26:17.985Z,99.90
2018-01-24T19:28:50.162Z,99.90
2018-01-24T19:31:18.033Z,99.90
2018-01-24T19:36:25.992Z,99.90
2018-01-24T19:38:52.679Z,99.90
2018-01-24T19:41:20.284Z,99.90
2018-01-24T19:43:47.968Z,99.90
2018-01-24T19:46:15.767Z,99.90
2018-01-24T19:48:43.355Z,99.90
2018-01-24T19:51:11.055Z,99.90
2018-01-24T19:53:39.508Z,99.90
2018-01-24T19:56:07.295Z,99.90
2018-01-24T19:58:35.261Z,99.90
2018-01-24T20:01:02.900Z,99.90
2018-01-24T20:03:30.543Z,99.90
2018-01-24T20:05:58.483Z,99.90
2018-01-24T20:08:26.322Z,99.90
2018-01-24T20:10:54.293Z,99.90
2018-01-24T20:13:22.341Z,99.90
2018-01-24T20:15:50.000Z,99.90
2018-01-24T20:18:17.699Z,99.90
2018-01-24T20:20:45.572Z,99.90
2018-01-24T20:23:13.905Z,99.90
2018-01-24T20:28:21.880Z,99.90
2018-01-24T20:33:19.946Z,99.90
2018-01-24T20:35:48.299Z,99.90
2018-01-24T20:38:15.996Z,99.90
2018-01-24T20:40:43.567Z,99.90
2018-01-24T20:43:11.510Z,99.90
2018-01-24T20:45:39.365Z,99.90
2018-01-24T20:48:07.258Z,99.90
2018-01-24T20:50:34.977Z,99.90
2018-01-24T20:53:02.556Z,99.90
2018-01-24T20:55:30.232Z,99.90
2018-01-24T20:57:57.906Z,99.90
2018-01-24T21:00:25.842Z,99.90
2018-01-24T21:02:53.310Z,99.90
2018-01-24T21:07:49.154Z,99.90
2018-01-24T21:12:44.529Z,99.90
2018-01-24T21:15:12.159Z,99.90
2018-01-24T21:17:39.914Z,99.90
2018-01-24T21:20:07.594Z,99.90
2018-01-24T21:22:35.257Z,99.90
2018-01-24T21:25:03.004Z,99.90
2018-01-24T21:27:30.688Z,99.90
2018-01-24T21:30:10.120Z,99.90
2018-01-24T21:32:50.032Z,99.90
2018-01-24T21:35:29.873Z,99.90
2018-01-24T21:37:57.953Z,99.90
2018-01-24T21:45:46.058Z,99.90
2018-01-24T21:48:13.774Z,99.90
2018-01-24T21:50:41.356Z,99.90
2018-01-24T21:53:09.031Z,99.90
2018-01-24T21:55:36.795Z,99.90
2018-01-24T21:58:04.424Z,99.90
2018-01-24T22:00:32.434Z,99.90
2018-01-24T22:05:27.919Z,99.90
2018-01-24T22:07:55.623Z,94.10
2018-01-24T22:10:23.501Z,96.10
2018-01-24T22:15:18.693Z,99.90
2018-01-24T22:20:29.000Z,99.90
2018-01-24T22:22:56.688Z,99.90
2018-01-24T22:25:25.251Z,99.90
2018-01-24T22:27:54.104Z,99.90
2018-01-24T22:30:21.527Z,99.90
2018-01-24T22:32:50.358Z,99.90
2018-01-24T22:35:18.528Z,99.90
2018-01-24T22:37:46.214Z,99.90
2018-01-24T22:40:13.844Z,99.90
2018-01-24T22:42:42.396Z,99.90
2018-01-24T22:45:10.083Z,99.90
2018-01-24T22:47:37.711Z,99.90
2018-01-24T22:50:05.873Z,99.90
2018-01-24T22:52:34.452Z,99.90
2018-01-24T22:57:30.649Z,99.90
2018-01-24T22:59:59.099Z,99.90
2018-01-24T23:02:27.545Z,99.90
2018-01-24T23:04:56.121Z,99.90
2018-01-24T23:07:24.747Z,99.90
2018-01-24T23:09:52.373Z,99.90
2018-01-24T23:12:20.013Z,99.90
2018-01-24T23:14:47.703Z,99.90
2018-01-24T23:17:15.327Z,99.90
2018-01-24T23:19:42.957Z,99.90
2018-01-24T23:22:10.636Z,99.80
2018-01-24T23:24:38.262Z,99.90
2018-01-24T23:27:05.897Z,99.90
2018-01-24T23:32:02.041Z,99.90
2018-01-24T23:34:30.659Z,99.90
2018-01-24T23:36:58.359Z,99.90
2018-01-24T23:39:25.933Z,99.90
2018-01-24T23:47:00.331Z,99.90
2018-01-24T23:49:28.007Z,99.90
2018-01-24T23:51:57.292Z,99.90
2018-01-24T23:54:25.731Z,99.90
2018-01-24T23:56:53.770Z,99.90
2018-01-24T23:59:21.608Z,99.90
